Latest Weather Observations for Pallamana

IDS60901

Issued at 12:11 pm CDT Thursday 21 March 2019 (issued every 10 minutes, with the page automatically refreshed every 10 minutes)

About weather observations | Map of Adelaide area stations | Latest observations for Adelaide area | Other Formats
Station Details ID: 024584 Name: PALLAMANA AERODROME Lat: -35.06 Lon: 139.23 Height: 45.0 m
Data from the previous 72 hours. | See also: Recent months at Pallamana
Date/Time
CDT
Temp
°C
App
Temp
°C
Dew
Point
°C
Rel
Hum
%
Delta-T
°C
Wind Press
QNH
hPa
Press
MSL
hPa
Rain since
9am
mm
Dir  Spd
km/h
Gust
km/h
Spd
kts
Gust
kts
21/12:00pm 20.7 18.1 13.8 64 4.0 SSW 20 26 11 14 1017.7 1017.6 0.0
21/11:37am 20.1 17.8 14.0 68 3.5 SSW 19 28 10 15 1018.0 1017.9 0.0
21/11:30am 20.0 18.2 14.5 70 3.2 SSW 17 22 9 12 1018.1 1018.0 0.0
21/11:00am 18.7 16.6 14.6 77 2.4 SSW 19 26 10 14 1018.5 1018.4 0.0
21/10:30am 18.2 16.5 14.6 79 2.1 SSE 17 22 9 12 1018.6 1018.5 0.0
21/10:00am 17.8 16.0 14.5 81 1.9 S 17 22 9 12 1018.6 1018.5 0.0
21/09:30am 17.6 15.4 14.3 81 1.9 S 19 24 10 13 1018.3 1018.2 0.0
21/09:00am 17.0 15.2 14.4 85 1.5 S 17 20 9 11 1018.1 1018.0 0.0
21/08:30am 16.9 15.2 14.6 86 1.3 S 17 22 9 12 1017.9 1017.8 0.0
21/08:00am 16.7 15.0 14.8 88 1.1 S 17 22 9 12 1017.5 1017.3 0.0
21/07:30am 17.0 15.4 14.9 87 1.2 S 17 20 9 11 1017.1 1016.9 0.0
21/07:00am 16.9 15.7 15.0 88 1.1 S 15 19 8 10 1016.8 1016.6 0.0
21/06:30am 16.9 15.0 15.2 90 1.0 SSW 19 24 10 13 1016.4 1016.2 0.0
21/06:00am 16.9 15.8 15.4 91 0.9 SSW 15 20 8 11 1016.2 1016.0 0.0
21/05:30am 16.3 15.5 15.1 93 0.7 SSW 13 17 7 9 1016.1 1015.9 0.0
21/05:25am 16.1 14.9 15.1 94 0.6 SSW 15 17 8 9 1016.1 1015.9 0.0
21/05:00am 15.8 14.2 14.9 94 0.5 SW 17 20 9 11 1016.0 1015.8 0.0
21/04:30am 16.1 14.5 15.1 94 0.6 SW 17 20 9 11 1015.7 1015.5 0.0
21/04:00am 16.5 15.0 15.3 93 0.7 SW 17 20 9 11 1015.4 1015.2 0.0
21/03:30am 16.6 14.8 15.4 93 0.7 WSW 19 22 10 12 1015.4 1015.2 0.0
21/03:00am 17.0 15.0 15.6 91 0.8 WSW 20 26 11 14 1015.3 1015.1 0.0
21/02:30am 17.1 15.1 15.6 91 0.9 WSW 20 26 11 14 1015.4 1015.2 0.0
21/02:00am 17.3 15.4 15.8 91 0.9 WSW 20 24 11 13 1015.6 1015.4 0.0
21/01:30am 17.7 15.1 15.8 89 1.1 SW 24 33 13 18 1015.8 1015.6 0.0
21/01:00am 17.8 15.2 15.9 89 1.1 WSW 24 30 13 16 1015.9 1015.7 0.0
21/12:30am 17.9 15.0 16.0 89 1.1 WSW 26 32 14 17 1016.0 1015.8 0.0
21/12:00am 18.1 15.2 16.1 88 1.2 WSW 26 33 14 18 1016.0 1015.8 0.0
 
Date/Time
CDT
Temp
°C
App
Temp
°C
Dew
Point
°C
Rel
Hum
%
Delta-T
°C
Wind Press
QNH
hPa
Press
MSL
hPa
Rain since
9am
mm
Dir  Spd
km/h
Gust
km/h
Spd
kts
Gust
kts
20/11:30pm 18.2 14.6 16.2 88 1.2 WSW 30 39 16 21 1016.2 1016.0 0.0
20/11:00pm 18.3 14.3 16.3 88 1.2 WSW 32 39 17 21 1016.1 1015.9 0.0
20/10:30pm 18.4 14.8 16.2 87 1.3 SW 30 39 16 21 1016.1 1015.9 0.0
20/10:00pm 18.5 14.9 16.3 87 1.3 SW 30 37 16 20 1015.8 1015.6 0.0
20/09:30pm 18.8 15.2 16.3 85 1.5 SW 30 39 16 21 1015.6 1015.4 0.0
20/09:00pm 19.0 15.4 16.2 84 1.7 SW 30 39 16 21 1015.3 1015.1 0.0
20/08:30pm 19.4 16.2 16.2 82 1.9 SW 28 37 15 20 1015.1 1014.9 0.0
20/08:00pm 20.3 16.3 16.1 77 2.5 SW 32 39 17 21 1014.6 1014.4 0.0
20/07:30pm 21.4 17.1 15.9 71 3.3 SW 33 43 18 23 1014.3 1014.1 0.0
20/07:00pm 23.2 19.4 14.8 59 5.0 SW 28 37 15 20 1013.9 1013.7 0.0
20/06:30pm 25.0 20.3 13.2 48 6.9 SSW 30 39 16 21 1013.6 1013.4 0.0
20/06:00pm 25.5 20.3 13.4 47 7.1 SSW 33 43 18 23 1013.4 1013.2 0.0
20/05:30pm 26.7 21.6 13.7 44 7.7 SSW 33 43 18 23 1013.2 1013.0 0.0
20/05:00pm 27.5 22.4 13.7 42 8.2 SSW 33 43 18 23 1012.9 1012.7 0.0
20/04:30pm 28.5 23.3 14.4 42 8.5 SSW 35 41 19 22 1012.8 1012.6 0.0
20/04:00pm 30.3 26.1 13.4 35 10.1 S 28 37 15 20 1012.8 1012.6 0.0
20/03:30pm 31.1 28.0 10.3 27 11.9 S 17 24 9 13 1012.9 1012.7 0.0
20/03:00pm 31.8 30.6 9.6 25 12.6 S 6 9 3 5 1013.2 1013.0 0.0
20/02:30pm 30.2 28.6 10.1 28 11.4 SE 9 15 5 8 1013.5 1013.3 0.0
20/02:00pm 29.4 27.9 10.4 30 10.8 NNE 9 19 5 10 1013.8 1013.6 0.0
20/01:30pm 29.2 27.9 12.5 35 9.8 SE 11 24 6 13 1014.4 1014.2 0.0
20/01:00pm 27.6 26.5 13.2 41 8.5 E 11 19 6 10 1014.9 1014.7 0.0
20/12:30pm 26.1 26.1 15.2 51 6.6 ESE 9 15 5 8 1015.2 1015.0 0.0
20/12:00pm 25.4 25.9 15.5 54 6.0 SSE 7 15 4 8 1015.5 1015.3 0.0
20/11:30am 23.8 23.8 15.3 59 5.1 SSE 9 15 5 8 1015.8 1015.6 0.0
20/11:00am 22.6 22.9 16.9 70 3.5 SSE 11 17 6 9 1016.1 1015.9 0.0
20/10:30am 21.0 21.5 17.4 80 2.2 SE 11 15 6 8 1016.2 1016.0 0.0
20/10:10am 20.6 21.8 17.3 81 2.0 SE 7 13 4 7 1016.1 1015.9 0.0
20/10:00am 19.8 20.9 17.2 85 1.6 S 7 9 4 5 1016.1 1015.9 0.0
20/09:30am 18.8 19.0 16.8 88 1.2 SSW 11 15 6 8 1016.1 1015.9 0.0
20/09:07am 18.1 17.0 16.4 90 1.0 SW 17 20 9 11 1016.2 1016.0 0.0
20/09:00am 17.9 16.7 16.2 90 1.0 SW 17 22 9 12 1016.3 1016.1 0.0
20/08:30am 18.2 17.2 15.5 84 1.6 SW 15 17 8 9 1016.0 1015.8 0.0
20/08:00am 17.4 17.3 15.0 86 1.4 SW 9 13 5 7 1015.7 1015.5 0.0
20/07:30am 15.8 15.6 13.7 87 1.2 SW 7 9 4 5 1015.5 1015.3 0.0
20/07:00am 15.9 15.6 13.4 85 1.4 S 7 11 4 6 1015.2 1015.0 0.0
20/06:30am 16.2 14.4 13.3 83 1.6 WSW 15 19 8 10 1014.8 1014.6 0.0
20/06:00am 16.3 14.0 13.1 81 1.8 WSW 17 20 9 11 1014.7 1014.5 0.0
20/05:30am 16.4 14.2 13.2 81 1.8 WSW 17 19 9 10 1014.3 1014.1 0.0
20/05:00am 16.5 14.2 13.1 80 1.9 WSW 17 19 9 10 1014.2 1014.0 0.0
20/04:30am 16.6 14.2 12.8 78 2.1 WSW 17 19 9 10 1014.0 1013.8 0.0
20/04:00am 16.5 14.2 13.1 80 1.9 WSW 17 19 9 10 1014.0 1013.8 0.0
20/03:30am 16.3 14.8 13.1 81 1.8 WSW 13 17 7 9 1014.0 1013.8 0.0
20/03:00am 15.3 15.1 13.0 86 1.3 SW 6 11 3 6 1014.1 1013.9 0.0
20/02:30am 16.3 15.7 13.5 83 1.6 SW 9 11 5 6 1014.3 1014.1 0.0
20/02:00am 16.4 15.5 13.6 83 1.6 WSW 11 17 6 9 1014.3 1014.1 0.0
20/01:30am 16.7 14.6 13.7 82 1.7 WSW 17 20 9 11 1014.3 1014.1 0.0
20/01:00am 16.5 15.0 14.2 86 1.3 WSW 15 17 8 9 1014.4 1014.2 0.0
20/12:30am 16.2 15.1 14.3 88 1.1 SW 13 15 7 8 1014.5 1014.3 0.0
20/12:00am 16.5 14.2 14.6 88 1.1 WSW 20 26 11 14 1014.7 1014.5 0.0
 
Date/Time
CDT
Temp
°C
App
Temp
°C
Dew
Point
°C
Rel
Hum
%
Delta-T
°C
Wind Press
QNH
hPa
Press
MSL
hPa
Rain since
9am
mm
Dir  Spd
km/h
Gust
km/h
Spd
kts
Gust
kts
19/11:30pm 16.5 13.9 14.8 90 1.0 WSW 22 26 12 14 1014.8 1014.6 0.0
19/11:00pm 16.7 14.7 15.0 90 1.0 WSW 19 24 10 13 1015.1 1014.9 0.0
19/10:30pm 16.9 14.9 15.0 88 1.1 SW 19 22 10 12 1015.4 1015.2 0.0
19/10:00pm 17.1 15.1 15.0 87 1.2 SW 19 22 10 12 1015.3 1015.1 0.0
19/09:30pm 17.5 16.0 15.3 87 1.3 SW 17 22 9 12 1015.3 1015.1 0.0
19/09:00pm 18.0 15.9 15.3 84 1.6 SW 20 24 11 13 1015.0 1014.8 0.0
19/08:30pm 18.6 17.1 15.2 80 2.0 SSW 17 22 9 12 1014.7 1014.5 0.0
19/08:00pm 19.3 17.5 15.4 78 2.3 SSW 19 24 10 13 1014.3 1014.1 0.0
19/07:30pm 20.7 18.7 14.9 69 3.4 SW 19 24 10 13 1013.9 1013.7 0.0
19/07:00pm 22.4 19.8 14.8 62 4.5 SSW 22 30 12 16 1013.6 1013.4 0.0
19/06:30pm 24.3 19.7 14.7 55 5.7 SSW 32 39 17 21 1013.0 1012.8 0.0
19/06:00pm 25.9 21.3 14.7 50 6.7 SSW 32 37 17 20 1012.7 1012.5 0.0
19/05:30pm 27.5 23.7 14.6 45 7.8 SSW 28 35 15 19 1012.4 1012.2 0.0
19/05:00pm 28.6 24.5 13.7 40 8.9 SSW 28 37 15 20 1012.3 1012.1 0.0
19/04:30pm 29.9 25.9 11.7 32 10.6 S 24 32 13 17 1012.2 1012.0 0.0
19/04:00pm 30.6 27.3 11.5 30 11.1 SSE 20 32 11 17 1012.5 1012.3 0.0
19/03:30pm 31.1 28.4 10.3 27 11.9 S 15 22 8 12 1012.8 1012.6 0.0
19/03:00pm 30.2 27.5 8.8 26 11.9 SE 13 20 7 11 1013.1 1012.9 0.0
19/02:30pm 30.4 28.4 8.6 25 12.1 SSE 9 19 5 10 1013.6 1013.4 0.0
19/02:00pm 28.8 26.4 10.2 31 10.5 SSE 13 20 7 11 1014.1 1013.9 0.0
19/01:30pm 28.8 26.5 10.5 32 10.4 ESE 13 22 7 12 1014.6 1014.4 0.0
19/01:00pm 27.4 25.6 12.0 38 8.9 ESE 13 20 7 11 1015.1 1014.9 0.0
19/12:30pm 26.2 25.1 13.0 44 7.7 E 11 17 6 9 1015.7 1015.5 0.0
19/12:00pm 25.1 24.4 14.3 51 6.4 SE 11 17 6 9 1016.1 1015.9 0.0
19/11:30am 23.9 23.3 13.4 51 6.1 SE 9 13 5 7 1016.5 1016.3 0.0
19/11:00am 22.5 21.8 14.3 59 4.8 S 11 15 6 8 1016.8 1016.6 0.0
19/10:30am 20.9 20.1 15.1 69 3.4 S 13 19 7 10 1017.0 1016.8 0.0
19/10:02am 19.7 18.7 15.5 77 2.5 S 15 19 8 10 1017.1 1016.9 0.0
19/10:00am 19.5 18.4 15.4 77 2.4 S 15 20 8 11 1017.1 1016.9 0.0
19/09:30am 19.0 18.4 15.6 80 2.0 S 13 15 7 8 1017.0 1016.8 0.0
19/09:00am 18.0 16.6 15.6 86 1.4 SW 17 20 9 11 1016.9 1016.7 0.0
19/08:30am 17.3 16.4 15.8 91 0.9 SW 15 20 8 11 1016.7 1016.5 0.0
19/08:00am 16.6 15.6 15.6 94 0.6 SW 15 19 8 10 1016.3 1016.1 0.0
19/07:30am 16.0 15.2 15.0 94 0.6 SW 13 17 7 9 1016.1 1015.9 0.0
19/07:28am 15.9 15.0 14.9 94 0.6 SW 13 15 7 8 1016.1 1015.9 0.0
19/07:00am 15.1 13.9 14.0 93 0.6 SW 13 17 7 9 1016.0 1015.8 0.0
19/06:30am 15.3 13.8 14.2 93 0.6 WSW 15 19 8 10 1015.6 1015.4 0.0
19/06:00am 15.7 13.5 14.3 91 0.8 WSW 19 22 10 12 1015.3 1015.1 0.0
19/05:30am 15.7 13.5 14.5 93 0.7 WSW 19 24 10 13 1015.2 1015.0 0.0
19/05:00am 16.0 13.9 14.8 93 0.7 WSW 19 24 10 13 1015.2 1015.0 0.0
19/04:30am 16.1 13.8 14.7 91 0.8 WSW 20 26 11 14 1015.1 1014.9 0.0
19/04:00am 16.2 14.1 14.8 91 0.8 WSW 19 22 10 12 1015.1 1014.9 0.0
19/03:30am 16.2 14.0 15.0 93 0.7 WSW 20 24 11 13 1015.2 1015.0 0.0
19/03:00am 16.3 14.3 14.9 91 0.8 WSW 19 22 10 12 1015.3 1015.1 0.0
19/02:30am 16.6 14.5 15.2 91 0.8 WSW 20 26 11 14 1015.5 1015.3 0.0
19/02:00am 16.4 14.5 15.2 93 0.7 WSW 19 22 10 12 1015.5 1015.3 0.0
19/01:30am 16.1 14.4 14.7 91 0.8 WSW 17 20 9 11 1015.9 1015.7 0.0
19/01:00am 16.1 14.4 14.7 91 0.8 WSW 17 20 9 11 1016.2 1016.0 0.0
19/12:30am 16.3 15.3 14.7 90 0.9 WSW 13 17 7 9 1016.3 1016.1 0.0
19/12:00am 16.4 15.9 14.8 90 0.9 WSW 11 15 6 8 1016.4 1016.2 0.0
 
Date/Time
CDT
Temp
°C
App
Temp
°C
Dew
Point
°C
Rel
Hum
%
Delta-T
°C
Wind Press
QNH
hPa
Press
MSL
hPa
Rain since
9am
mm
Dir  Spd
km/h
Gust
km/h
Spd
kts
Gust
kts
18/11:30pm 16.4 15.4 14.7 90 1.0 SW 13 17 7 9 1016.6 1016.4 0.0
18/11:00pm 16.7 15.1 15.0 90 1.0 SW 17 19 9 10 1016.6 1016.4 0.0
18/10:30pm 16.9 15.6 14.8 87 1.2 SW 15 19 8 10 1016.6 1016.4 0.0
18/10:00pm 17.3 15.7 14.9 86 1.4 WSW 17 22 9 12 1016.6 1016.4 0.0
18/09:30pm 17.7 16.4 14.8 83 1.7 SW 15 22 8 12 1016.4 1016.2 0.0
18/09:00pm 18.2 16.6 14.9 81 1.9 SW 17 24 9 13 1016.2 1016.0 0.0
18/08:30pm 18.7 17.1 14.9 78 2.2 SW 17 20 9 11 1015.9 1015.7 0.0
18/08:00pm 19.3 16.9 14.5 74 2.8 SSW 20 24 11 13 1015.5 1015.3 0.0
18/07:30pm 20.4 17.7 14.6 69 3.4 SSW 22 28 12 15 1015.2 1015.0 0.0
18/07:00pm 21.6 18.4 14.2 62 4.3 SSW 24 32 13 17 1014.9 1014.7 0.0
18/06:30pm 23.6 20.7 14.1 55 5.6 SSW 22 28 12 15 1014.7 1014.5 0.0
18/06:00pm 25.0 22.4 13.8 49 6.6 SSW 20 30 11 16 1014.5 1014.3 0.0
18/05:30pm 25.8 23.0 13.1 45 7.4 SSW 20 26 11 14 1014.4 1014.2 0.0
18/05:00pm 25.8 23.3 13.6 47 7.2 SSW 19 26 10 14 1014.6 1014.4 0.0
18/04:30pm 26.8 23.6 13.2 43 8.0 SSW 22 28 12 15 1014.6 1014.4 0.0
18/04:00pm 26.6 23.9 13.6 44 7.7 S 20 26 11 14 1014.7 1014.5 0.0
18/03:30pm 27.5 24.4 13.5 42 8.3 S 22 28 12 15 1014.8 1014.6 0.0
18/03:00pm 27.8 24.9 13.0 40 8.7 SSE 20 28 11 15 1015.1 1014.9 0.0
18/02:30pm 28.7 25.5 11.3 34 10.0 SSE 19 24 10 13 1015.5 1015.3 0.0
18/02:00pm 28.9 25.8 12.3 36 9.7 SSE 20 26 11 14 1015.9 1015.7 0.0
18/01:30pm 28.1 25.7 12.5 38 9.1 SSE 17 20 9 11 1016.5 1016.3 0.0
18/01:00pm 27.1 24.6 13.4 42 8.1 SSE 19 26 10 14 1016.8 1016.6 0.0
18/12:30pm 26.1 23.8 14.2 48 7.1 SSE 19 30 10 16 1017.0 1016.8 0.0

Latest Capital City Observations: Canberra | Sydney | Melbourne | Brisbane | Adelaide | Perth | Hobart | Darwin

Other formats

Comma delimited format used in spreadsheet applications
http://www.bom.gov.au/fwo/IDS60901/IDS60901.95818.axf

JavaScript Object Notation format (JSON) in row-major order
http://www.bom.gov.au/fwo/IDS60901/IDS60901.95818.json

Data quality

Most of these data are generated automatically and are frequently updated. Quality checks on data are not normally performed. It is possible for incorrect values to appear. Refer to information at About Latest Weather Observations and please check the disclaimer before using these data.